Time;durP1;ratioP1;P1;durP2;ratioP2;P2;SDS_P1;SDS_P2;PMS_P1;PMS_P2;Temp;Humidity;BMP_temperature;BMP_pressure;BME280_temperature;BME280_humidity;BME280_pressure;Samples;Min_cycle;Max_cycle;Signal;HPM_P1;HPM_P2
2022/02/04 00:24:43;;;;;;;1.52;1.05;;;;;;;;;;4384042;32;20096;-63
2022/02/04 00:27:16;;;;;;;0.95;0.93;;;;;;;;;;4408845;32;20582;-63
2022/02/04 00:30:10;;;;;;;1.70;1.20;;;;;;;;;;4395448;32;20093;-63
2022/02/04 00:32:35;;;;;;;2.25;1.45;;;;;;;;;;4408637;32;20077;-63
2022/02/04 00:38:12;;;;;;;;;;;;;;;;;;4385133;32;20084;-64
2022/02/04 00:40:43;;;;;;;1.90;1.40;;;;;;;;;;4394760;32;19956;-63
2022/02/04 00:43:13;;;;;;;1.48;1.33;;;;;;;;;;4408548;32;20074;-63
2022/02/04 00:45:48;;;;;;;1.55;1.30;;;;;;;;;;4394752;32;20082;-63
2022/02/04 00:48:36;;;;;;;2.10;1.25;;;;;;;;;;4394464;32;20080;-62
2022/02/04 00:52:01;;;;;;;1.95;1.50;;;;;;;;;;4396612;32;20084;-62
2022/02/04 00:57:02;;;;;;;2.37;1.70;;;;;;;;;;4408486;32;20069;-61
2022/02/04 01:13:39;;;;;;;1.83;1.40;;;;;;;;;;4383409;32;20089;-63
2022/02/04 01:27:07;;;;;;;1.92;1.42;;;;;;;;;;4396341;32;20085;-63
2022/02/04 01:29:42;;;;;;;1.92;1.50;;;;;;;;;;4381567;32;20073;-62
2022/02/04 01:32:09;;;;;;;1.60;1.50;;;;;;;;;;4393931;32;20145;-62
2022/02/04 01:34:36;;;;;;;1.30;1.20;;;;;;;;;;4408070;32;20157;-63
2022/02/04 01:37:03;;;;;;;1.55;1.27;;;;;;;;;;4393869;32;20085;-63
2022/02/04 01:39:30;;;;;;;1.55;1.45;;;;;;;;;;4381569;32;20079;-62
2022/02/04 01:41:56;;;;;;;1.37;1.23;;;;;;;;;;4407876;32;20581;-62
2022/02/04 01:44:28;;;;;;;1.50;1.25;;;;;;;;;;4394342;32;20153;-62
2022/02/04 01:46:55;;;;;;;1.65;1.42;;;;;;;;;;4381119;32;20541;-62
2022/02/04 01:49:27;;;;;;;1.15;1.05;;;;;;;;;;4393669;32;20504;-62
2022/02/04 01:51:54;;;;;;;1.17;1.05;;;;;;;;;;4382686;32;20074;-62
2022/02/04 01:54:21;;;;;;;1.10;1.00;;;;;;;;;;4380989;32;20070;-62
2022/02/04 01:56:48;;;;;;;1.33;1.08;;;;;;;;;;4393411;32;20140;-61
2022/02/04 01:59:14;;;;;;;1.37;1.10;;;;;;;;;;4380504;32;20487;-62
2022/02/04 02:01:41;;;;;;;1.35;1.17;;;;;;;;;;4393822;32;20160;-63
2022/02/04 02:04:11;;;;;;;1.40;1.02;;;;;;;;;;4393833;32;20160;-63
2022/02/04 02:06:57;;;;;;;1.10;1.00;;;;;;;;;;4407296;32;20087;-63
2022/02/04 02:10:11;;;;;;;2.05;1.40;;;;;;;;;;4394139;32;20527;-63
2022/02/04 02:12:17;;;;;;;1.52;1.10;;;;;;;;;;4389733;32;20085;-62
2022/02/04 02:14:45;;;;;;;1.12;1.02;;;;;;;;;;4407392;32;20137;-62
2022/02/04 02:37:56;;;;;;;2.12;1.60;;;;;;;;;;4394910;32;20627;-63
2022/02/04 02:44:28;;;;;;;1.52;1.42;;;;;;;;;;4393381;32;20061;-62
2022/02/04 02:52:40;;;;;;;2.37;1.58;;;;;;;;;;4367937;32;20076;-63
2022/02/04 03:03:13;;;;;;;2.33;1.75;;;;;;;;;;4406714;32;20069;-63
2022/02/04 03:05:40;;;;;;;2.72;1.67;;;;;;;;;;4367362;32;20455;-63
2022/02/04 03:08:07;;;;;;;2.45;1.75;;;;;;;;;;4392471;32;20167;-63
2022/02/04 03:10:34;;;;;;;2.22;1.62;;;;;;;;;;4380282;32;20155;-63
2022/02/04 03:13:02;;;;;;;2.10;1.70;;;;;;;;;;4379945;32;20069;-63
2022/02/04 03:15:29;;;;;;;1.70;1.50;;;;;;;;;;4392574;32;20521;-62
2022/02/04 03:18:06;;;;;;;2.83;2.05;;;;;;;;;;4392364;32;20082;-63
2022/02/04 03:20:47;;;;;;;1.90;1.58;;;;;;;;;;4392241;32;20076;-62
2022/02/04 03:23:14;;;;;;;2.40;2.00;;;;;;;;;;4394143;32;20088;-63
2022/02/04 03:25:45;;;;;;;2.60;1.75;;;;;;;;;;4391927;32;20089;-62
2022/02/04 03:28:17;;;;;;;3.83;2.40;;;;;;;;;;4392658;32;20092;-62
2022/02/04 03:30:45;;;;;;;2.60;2.00;;;;;;;;;;4406204;32;20091;-63
2022/02/04 03:33:12;;;;;;;2.78;1.95;;;;;;;;;;4392704;32;20077;-63
2022/02/04 03:35:39;;;;;;;3.28;2.30;;;;;;;;;;4406447;32;20085;-62
2022/02/04 03:38:06;;;;;;;3.37;2.40;;;;;;;;;;4406256;32;20108;-61
2022/02/04 03:40:33;;;;;;;2.28;1.98;;;;;;;;;;4392514;32;20096;-62
2022/02/04 03:42:59;;;;;;;3.28;2.35;;;;;;;;;;4406249;32;20508;-62
2022/02/04 03:45:26;;;;;;;3.47;2.00;;;;;;;;;;4392825;32;20127;-62
2022/02/04 03:47:53;;;;;;;3.65;2.45;;;;;;;;;;4395465;32;20487;-62
2022/02/04 03:50:20;;;;;;;3.05;2.17;;;;;;;;;;4382736;32;20158;-62
2022/02/04 03:52:47;;;;;;;3.67;2.50;;;;;;;;;;4382758;32;20064;-61
2022/02/04 03:55:13;;;;;;;2.53;2.00;;;;;;;;;;4395781;32;20089;-62
2022/02/04 03:57:41;;;;;;;2.85;2.20;;;;;;;;;;4395481;32;20162;-62
2022/02/04 04:00:10;;;;;;;4.18;2.00;;;;;;;;;;4383162;32;20105;-63
2022/02/04 04:02:37;;;;;;;2.83;1.77;;;;;;;;;;4395374;32;20101;-64
2022/02/04 04:05:04;;;;;;;2.70;1.37;;;;;;;;;;4382399;32;20483;-61
2022/02/04 04:07:31;;;;;;;2.17;1.80;;;;;;;;;;4409929;32;20074;-62
2022/02/04 04:10:12;;;;;;;2.65;1.90;;;;;;;;;;4409393;32;20080;-62
2022/02/04 04:12:39;;;;;;;2.37;1.60;;;;;;;;;;4395088;32;20108;-63
2022/02/04 04:15:09;;;;;;;3.35;1.77;;;;;;;;;;4394983;32;20089;-62
2022/02/04 04:17:41;;;;;;;2.67;1.33;;;;;;;;;;4408906;32;20085;-62
2022/02/04 04:20:15;;;;;;;3.25;1.90;;;;;;;;;;4408919;32;20507;-62
2022/02/04 04:22:42;;;;;;;2.12;1.67;;;;;;;;;;4382934;32;20455;-63
2022/02/04 04:25:10;;;;;;;2.45;1.73;;;;;;;;;;4382385;32;20097;-62
2022/02/04 04:27:37;;;;;;;3.37;2.37;;;;;;;;;;4395061;32;20077;-62
2022/02/04 04:30:05;;;;;;;2.87;1.70;;;;;;;;;;4396050;32;20085;-63
2022/02/04 04:32:32;;;;;;;2.42;1.58;;;;;;;;;;4382544;32;20153;-63
2022/02/04 04:34:59;;;;;;;3.72;2.22;;;;;;;;;;4408699;32;20073;-62
2022/02/04 04:37:25;;;;;;;1.67;1.08;;;;;;;;;;4408862;32;20522;-63
2022/02/04 04:40:23;;;;;;;3.85;2.33;;;;;;;;;;4394785;32;20532;-62
2022/02/04 04:43:01;;;;;;;4.07;2.30;;;;;;;;;;4409011;32;20081;-61
2022/02/04 05:27:40;;;;;;;11.10;6.87;;;;;;;;;;4391793;32;20149;-62
2022/02/04 05:29:41;;;;;;;9.73;6.72;;;;;;;;;;4392247;32;20077;-61
2022/02/04 05:32:08;;;;;;;10.82;7.45;;;;;;;;;;4379056;32;20479;-62
2022/02/04 05:34:34;;;;;;;11.88;7.12;;;;;;;;;;4393174;32;20162;-62
2022/02/04 05:37:05;;;;;;;9.50;6.60;;;;;;;;;;4392879;32;20066;-63
2022/02/04 05:39:42;;;;;;;10.10;5.87;;;;;;;;;;4367386;32;20078;-62
2022/02/04 05:42:12;;;;;;;11.82;8.45;;;;;;;;;;4378858;32;20070;-61
2022/02/04 05:44:42;;;;;;;11.27;8.02;;;;;;;;;;4379583;32;20066;-61
2022/02/04 05:47:15;;;;;;;12.15;8.68;;;;;;;;;;4379354;32;20185;-63
2022/02/04 05:49:50;;;;;;;12.55;8.65;;;;;;;;;;4391562;32;20081;-61
2022/02/04 05:52:24;;;;;;;8.48;5.55;;;;;;;;;;4392938;32;20479;-62
2022/02/04 05:55:13;;;;;;;13.50;8.70;;;;;;;;;;4378951;32;20100;-61
2022/02/04 05:58:26;;;;;;;12.23;8.25;;;;;;;;;;4392497;32;20062;-62
2022/02/04 06:00:47;;;;;;;9.95;6.85;;;;;;;;;;4388477;32;20174;-61
2022/02/04 06:09:07;;;;;;;14.07;8.95;;;;;;;;;;4377120;32;20054;-62
2022/02/04 06:14:20;;;;;;;12.30;7.20;;;;;;;;;;4393033;32;20148;-61
2022/02/04 06:22:23;;;;;;;8.35;4.70;;;;;;;;;;4390650;32;20076;-62
2022/02/04 06:24:51;;;;;;;10.60;5.87;;;;;;;;;;4379733;32;20074;-63
2022/02/04 06:27:20;;;;;;;10.05;5.75;;;;;;;;;;4393581;32;20065;-61
2022/02/04 06:29:51;;;;;;;14.20;8.05;;;;;;;;;;4407575;32;20078;-61
2022/02/04 06:32:18;;;;;;;18.23;10.00;;;;;;;;;;4393322;32;20082;-61
2022/02/04 06:34:46;;;;;;;17.12;11.55;;;;;;;;;;4393623;32;20162;-61
2022/02/04 06:37:14;;;;;;;15.80;9.95;;;;;;;;;;4368171;32;20080;-61
2022/02/04 06:39:40;;;;;;;17.50;10.73;;;;;;;;;;4367893;32;20467;-61
2022/02/04 06:42:07;;;;;;;7.60;4.05;;;;;;;;;;4380495;32;20073;-62
2022/02/04 06:44:35;;;;;;;17.48;10.10;;;;;;;;;;4392682;32;20101;-62
2022/02/04 06:47:03;;;;;;;21.98;12.48;;;;;;;;;;4393093;32;20081;-61
2022/02/04 06:49:30;;;;;;;19.95;12.15;;;;;;;;;;4393483;32;20081;-61
2022/02/04 06:51:57;;;;;;;19.98;12.73;;;;;;;;;;4380434;32;20082;-61
2022/02/04 06:54:23;;;;;;;16.30;9.60;;;;;;;;;;4392725;32;20074;-62
2022/02/04 06:56:50;;;;;;;22.00;13.40;;;;;;;;;;4392529;32;20182;-62
2022/02/04 06:59:17;;;;;;;19.30;12.05;;;;;;;;;;4406811;32;20149;-62
2022/02/04 07:01:44;;;;;;;18.42;10.70;;;;;;;;;;4380762;32;20065;-62
2022/02/04 07:04:12;;;;;;;18.95;11.20;;;;;;;;;;4406329;32;20504;-61
2022/02/04 07:06:42;;;;;;;18.60;10.68;;;;;;;;;;4406304;32;20462;-62
2022/02/04 07:17:36;;;;;;;13.38;6.82;;;;;;;;;;4394643;32;20241;-61
2022/02/04 07:20:00;;;;;;;23.80;12.57;;;;;;;;;;4381837;32;20147;-62
2022/02/04 07:22:31;;;;;;;22.23;11.73;;;;;;;;;;4406490;32;20597;-62
2022/02/04 07:25:01;;;;;;;23.75;12.00;;;;;;;;;;4392837;32;20165;-61
2022/02/04 07:27:28;;;;;;;22.02;12.10;;;;;;;;;;4380222;32;20095;-61
2022/02/04 07:29:56;;;;;;;20.33;11.32;;;;;;;;;;4379814;32;20093;-61
2022/02/04 07:42:56;;;;;;;21.50;11.02;;;;;;;;;;4394436;32;20088;-61
2022/02/04 07:45:23;;;;;;;14.05;7.45;;;;;;;;;;4379779;32;20112;-61
2022/02/04 07:47:53;;;;;;;18.62;9.93;;;;;;;;;;4379560;32;20429;-61
2022/02/04 07:50:23;;;;;;;20.17;10.77;;;;;;;;;;4380166;32;20081;-61
2022/02/04 07:52:50;;;;;;;13.13;6.75;;;;;;;;;;4367861;32;20148;-61
2022/02/04 07:55:17;;;;;;;23.10;11.05;;;;;;;;;;4367844;32;20085;-62
2022/02/04 07:57:45;;;;;;;23.70;11.02;;;;;;;;;;4406693;32;20081;-61
2022/02/04 08:00:15;;;;;;;18.87;10.50;;;;;;;;;;4380326;32;20424;-62
2022/02/04 08:02:43;;;;;;;18.23;10.40;;;;;;;;;;4379979;32;20148;-61
2022/02/04 08:05:13;;;;;;;18.37;9.88;;;;;;;;;;4392094;32;20101;-62
2022/02/04 08:07:52;;;;;;;18.05;10.35;;;;;;;;;;4368136;32;20081;-60
2022/02/04 08:10:31;;;;;;;18.08;10.52;;;;;;;;;;4406349;32;20084;-61
2022/02/04 08:18:58;;;;;;;14.07;9.15;;;;;;;;;;4380030;32;20138;-61
2022/02/04 08:31:52;;;;;;;15.13;9.15;;;;;;;;;;4394919;32;20095;-63
2022/02/04 08:52:41;;;;;;;9.75;5.18;;;;;;;;;;4382726;32;20081;-61
2022/02/04 08:55:12;;;;;;;13.43;8.05;;;;;;;;;;4371476;32;20097;-62
2022/02/04 08:57:51;;;;;;;12.30;7.85;;;;;;;;;;4408275;32;20084;-62
2022/02/04 09:00:31;;;;;;;14.07;7.97;;;;;;;;;;4394619;32;20173;-61
2022/02/04 09:03:02;;;;;;;12.20;6.72;;;;;;;;;;4383080;32;20119;-63
2022/02/04 09:05:40;;;;;;;12.55;7.50;;;;;;;;;;4369754;32;20074;-62
2022/02/04 09:10:37;;;;;;;11.93;6.65;;;;;;;;;;4394720;32;20511;-62
2022/02/04 09:23:31;;;;;;;16.10;9.02;;;;;;;;;;4382582;32;20084;-61
2022/02/04 09:26:05;;;;;;;16.12;8.60;;;;;;;;;;4393430;32;20093;-61
2022/02/04 09:28:33;;;;;;;17.15;9.32;;;;;;;;;;4382846;32;20077;-61
2022/02/04 09:31:00;;;;;;;16.48;8.85;;;;;;;;;;4381268;32;20590;-61
2022/02/04 09:33:26;;;;;;;16.20;9.73;;;;;;;;;;4393817;32;20102;-61
2022/02/04 09:35:53;;;;;;;15.90;9.07;;;;;;;;;;4407578;32;20092;-60
2022/02/04 09:38:20;;;;;;;13.80;7.47;;;;;;;;;;4393940;32;20093;-61
2022/02/04 09:40:46;;;;;;;11.20;6.53;;;;;;;;;;4381219;32;20576;-61
2022/02/04 09:43:13;;;;;;;15.63;7.40;;;;;;;;;;4394104;32;20085;-61
2022/02/04 09:45:40;;;;;;;13.77;7.35;;;;;;;;;;4394163;32;20100;-62
2022/02/04 09:48:11;;;;;;;18.45;9.00;;;;;;;;;;4393703;32;20089;-61
2022/02/04 09:50:43;;;;;;;18.15;9.98;;;;;;;;;;4382635;32;20156;-61
2022/02/04 10:15:59;;;;;;;17.70;9.85;;;;;;;;;;4407724;32;19973;-61
2022/02/04 10:18:11;;;;;;;16.27;9.05;;;;;;;;;;4382668;32;20062;-61
2022/02/04 10:20:42;;;;;;;18.42;10.88;;;;;;;;;;4368835;32;20458;-62
2022/02/04 10:23:09;;;;;;;20.88;11.00;;;;;;;;;;4393585;32;20092;-64
2022/02/04 10:25:38;;;;;;;21.67;11.07;;;;;;;;;;4406913;32;20085;-60
2022/02/04 10:28:06;;;;;;;15.75;8.50;;;;;;;;;;4380815;32;20542;-62
2022/02/04 10:30:33;;;;;;;20.95;12.18;;;;;;;;;;4393472;32;20076;-62
2022/02/04 10:33:02;;;;;;;17.48;10.60;;;;;;;;;;4393531;32;20076;-61
2022/02/04 10:35:34;;;;;;;20.80;11.70;;;;;;;;;;4393706;32;20097;-61
2022/02/04 10:38:24;;;;;;;21.10;10.45;;;;;;;;;;4368945;32;20088;-62
2022/02/04 10:40:59;;;;;;;20.92;10.98;;;;;;;;;;4369772;32;20069;-62
2022/02/04 10:49:09;;;;;;;21.33;12.48;;;;;;;;;;4397517;32;20078;-61
2022/02/04 10:51:48;;;;;;;;;;;;;;;;;;4409692;32;20069;-61
2022/02/04 11:00:11;;;;;;;21.98;12.37;;;;;;;;;;4392859;32;20126;-62
2022/02/04 11:02:43;;;;;;;25.10;11.70;;;;;;;;;;4381663;32;20104;-61
2022/02/04 11:05:26;;;;;;;22.92;12.73;;;;;;;;;;4380479;32;20144;-61
2022/02/04 11:11:06;;;;;;;23.45;13.13;;;;;;;;;;4395259;32;20674;-62
2022/02/04 11:30:54;;;;;;;23.80;12.95;;;;;;;;;;4392302;32;20448;-61
2022/02/04 11:56:58;;;;;;;24.20;12.02;;;;;;;;;;4405142;32;20253;-62
2022/02/04 11:59:40;;;;;;;16.67;10.02;;;;;;;;;;4390493;32;20103;-62
2022/02/04 12:02:29;;;;;;;19.58;10.35;;;;;;;;;;4377707;32;20054;-62
2022/02/04 12:05:16;;;;;;;22.98;12.40;;;;;;;;;;4400822;32;20086;-62
2022/02/04 12:07:57;;;;;;;21.12;12.63;;;;;;;;;;4375566;32;20120;-62
2022/02/04 12:10:28;;;;;;;22.30;12.65;;;;;;;;;;4375545;32;20077;-63
2022/02/04 12:12:56;;;;;;;21.23;12.20;;;;;;;;;;4362386;32;20526;-62
2022/02/04 12:15:28;;;;;;;19.95;10.80;;;;;;;;;;4375512;32;20101;-62
2022/02/04 12:18:22;;;;;;;23.00;12.30;;;;;;;;;;4374937;32;20080;-61
2022/02/04 12:20:54;;;;;;;22.33;13.20;;;;;;;;;;4375582;32;20084;-62
2022/02/04 12:23:32;;;;;;;24.77;14.30;;;;;;;;;;4362788;32;20094;-61
2022/02/04 12:26:00;;;;;;;24.90;13.20;;;;;;;;;;4375549;32;20490;-62
2022/02/04 12:28:51;;;;;;;22.33;12.07;;;;;;;;;;4362757;32;20093;-61
2022/02/04 12:31:30;;;;;;;24.83;12.35;;;;;;;;;;4375079;32;20150;-62
2022/02/04 12:34:05;;;;;;;22.15;12.23;;;;;;;;;;4375619;32;20154;-62
2022/02/04 12:36:33;;;;;;;13.20;6.68;;;;;;;;;;4362992;32;20077;-63
2022/02/04 12:39:09;;;;;;;16.45;9.23;;;;;;;;;;4375100;32;20505;-62
2022/02/04 12:41:45;;;;;;;14.15;8.65;;;;;;;;;;4363324;32;20100;-62
2022/02/04 12:44:17;;;;;;;15.57;9.05;;;;;;;;;;4362120;32;20078;-63
2022/02/04 12:46:46;;;;;;;21.60;12.73;;;;;;;;;;4362294;32;20533;-62
2022/02/04 12:49:20;;;;;;;17.60;10.30;;;;;;;;;;4375008;32;20485;-62
2022/02/04 12:51:54;;;;;;;18.62;10.43;;;;;;;;;;4388327;32;20504;-63
2022/02/04 12:54:49;;;;;;;20.08;11.18;;;;;;;;;;4363309;32;20081;-62
2022/02/04 13:07:58;;;;;;;22.73;11.32;;;;;;;;;;4354092;32;20075;-64
2022/02/04 13:10:27;;;;;;;21.60;12.75;;;;;;;;;;4353619;32;20580;-62
2022/02/04 13:12:56;;;;;;;17.33;10.07;;;;;;;;;;4364770;32;20093;-63
2022/02/04 13:15:23;;;;;;;19.05;11.45;;;;;;;;;;4378549;32;20089;-62
2022/02/04 13:17:51;;;;;;;14.75;9.35;;;;;;;;;;4364594;32;20077;-62
2022/02/04 13:20:22;;;;;;;18.70;10.35;;;;;;;;;;4364083;32;20075;-62
2022/02/04 13:22:50;;;;;;;18.75;10.95;;;;;;;;;;4365207;32;20077;-62
2022/02/04 13:25:19;;;;;;;18.80;11.05;;;;;;;;;;4364319;32;20084;-63
2022/02/04 13:28:17;;;;;;;18.52;10.98;;;;;;;;;;4339373;32;20082;-63
2022/02/04 13:30:55;;;;;;;;;;;;;;;;;;4364383;32;20097;-63
2022/02/04 13:33:23;;;;;;;21.70;11.70;;;;;;;;;;4364278;32;19966;-62
2022/02/04 13:35:59;;;;;;;20.15;10.98;;;;;;;;;;4351716;32;20101;-63
2022/02/04 13:41:06;;;;;;;19.58;11.18;;;;;;;;;;4364283;32;20105;-63
2022/02/04 13:43:50;;;;;;;18.83;10.55;;;;;;;;;;4365198;32;20180;-63
2022/02/04 13:49:28;;;;;;;20.00;10.93;;;;;;;;;;4363691;32;20084;-63
2022/02/04 13:51:49;;;;;;;18.17;9.88;;;;;;;;;;4365182;32;20086;-63
2022/02/04 13:56:59;;;;;;;17.60;10.50;;;;;;;;;;4351851;32;20098;-62
2022/02/04 13:59:39;;;;;;;20.62;11.38;;;;;;;;;;4365385;32;20077;-62
2022/02/04 14:02:14;;;;;;;17.40;9.23;;;;;;;;;;4353021;32;20161;-63
2022/02/04 14:05:01;;;;;;;22.00;10.73;;;;;;;;;;4352052;32;20081;-62
2022/02/04 14:07:39;;;;;;;;;;;;;;;;;;4365034;32;20133;-63
2022/02/04 14:10:30;;;;;;;20.48;11.02;;;;;;;;;;4364485;32;19965;-62
2022/02/04 14:13:05;;;;;;;17.25;9.98;;;;;;;;;;4352208;32;20100;-63
2022/02/04 14:15:32;;;;;;;20.08;10.73;;;;;;;;;;4363733;32;20074;-63
2022/02/04 14:18:05;;;;;;;20.48;11.07;;;;;;;;;;4338787;32;20078;-63
2022/02/04 14:20:33;;;;;;;22.42;10.60;;;;;;;;;;4339479;32;20070;-63
2022/02/04 14:23:00;;;;;;;17.70;10.88;;;;;;;;;;4363372;32;20081;-63
2022/02/04 14:25:27;;;;;;;19.83;11.12;;;;;;;;;;4364575;32;20155;-62
2022/02/04 14:27:56;;;;;;;18.95;11.10;;;;;;;;;;4364312;32;20082;-64
2022/02/04 14:30:28;;;;;;;19.98;10.88;;;;;;;;;;4364217;32;20112;-64
2022/02/04 14:33:03;;;;;;;18.42;11.07;;;;;;;;;;4364891;32;20496;-63
2022/02/04 15:02:26;;;;;;;16.65;9.85;;;;;;;;;;4351485;32;20094;-63
2022/02/04 15:04:54;;;;;;;16.60;10.27;;;;;;;;;;4377007;32;20085;-63
2022/02/04 15:07:29;;;;;;;19.42;10.15;;;;;;;;;;4362911;32;20086;-62
2022/02/04 15:09:56;;;;;;;18.92;10.23;;;;;;;;;;4350475;32;20072;-63
2022/02/04 15:12:23;;;;;;;18.35;9.15;;;;;;;;;;4376770;32;20071;-63
2022/02/04 15:14:50;;;;;;;17.75;10.45;;;;;;;;;;4350661;32;20099;-63
2022/02/04 15:17:17;;;;;;;19.70;9.90;;;;;;;;;;4351050;32;20090;-62
2022/02/04 15:19:45;;;;;;;17.90;9.82;;;;;;;;;;4338397;32;20155;-62
2022/02/04 15:22:13;;;;;;;19.23;10.00;;;;;;;;;;4350361;32;20094;-61
2022/02/04 15:24:40;;;;;;;16.98;9.88;;;;;;;;;;4350202;32;20531;-62
2022/02/04 15:27:06;;;;;;;18.75;10.05;;;;;;;;;;4362370;32;20468;-63
2022/02/04 15:29:37;;;;;;;17.42;10.43;;;;;;;;;;4350003;32;20145;-63
2022/02/04 15:32:05;;;;;;;19.75;9.90;;;;;;;;;;4338650;32;20504;-61
2022/02/04 15:34:33;;;;;;;19.25;10.25;;;;;;;;;;4362681;32;20496;-62
2022/02/04 15:37:00;;;;;;;15.70;9.38;;;;;;;;;;4350167;32;20073;-61
2022/02/04 15:39:29;;;;;;;17.02;9.70;;;;;;;;;;4349987;32;20462;-63
2022/02/04 15:42:03;;;;;;;18.30;9.88;;;;;;;;;;4362867;32;20069;-63
2022/02/04 15:47:19;;;;;;;19.30;9.73;;;;;;;;;;4350514;32;20108;-63
2022/02/04 16:05:48;;;;;;;16.58;9.20;;;;;;;;;;4364918;32;20094;-62
2022/02/04 16:08:18;;;;;;;17.67;9.20;;;;;;;;;;4362405;32;20538;-64
2022/02/04 16:16:02;;;;;;;17.62;10.23;;;;;;;;;;4363623;32;20077;-62
2022/02/04 16:18:36;;;;;;;19.25;9.30;;;;;;;;;;4351391;32;20093;-63
2022/02/04 16:23:48;;;;;;;18.10;9.38;;;;;;;;;;4376206;32;20162;-63
2022/02/04 16:28:57;;;;;;;20.67;10.70;;;;;;;;;;4362402;32;20090;-63
2022/02/04 16:31:25;;;;;;;20.10;8.48;;;;;;;;;;4362860;32;20082;-62
2022/02/04 16:33:52;;;;;;;19.40;9.20;;;;;;;;;;4362471;32;20082;-61
2022/02/04 16:36:22;;;;;;;19.80;9.23;;;;;;;;;;4376084;32;20505;-62
2022/02/04 16:38:55;;;;;;;18.70;9.18;;;;;;;;;;4362792;32;20078;-62
2022/02/04 16:41:29;;;;;;;21.80;10.35;;;;;;;;;;4365264;32;20475;-62
2022/02/04 16:43:56;;;;;;;18.42;10.05;;;;;;;;;;4365866;32;20081;-62
2022/02/04 16:46:23;;;;;;;17.12;9.65;;;;;;;;;;4352735;32;20078;-64
2022/02/04 16:48:50;;;;;;;20.05;8.95;;;;;;;;;;4378601;32;20066;-62
2022/02/04 16:51:17;;;;;;;21.08;9.93;;;;;;;;;;4378947;32;20182;-63
2022/02/04 16:53:44;;;;;;;17.15;9.05;;;;;;;;;;4352181;32;20468;-64
2022/02/04 16:56:11;;;;;;;21.77;10.77;;;;;;;;;;4378855;32;20431;-62
2022/02/04 16:58:38;;;;;;;16.25;9.05;;;;;;;;;;4364786;32;20082;-63
2022/02/04 17:01:05;;;;;;;18.10;9.85;;;;;;;;;;4351886;32;20534;-63
2022/02/04 17:03:31;;;;;;;21.27;10.23;;;;;;;;;;4364647;32;20075;-63
2022/02/04 17:06:02;;;;;;;20.27;10.30;;;;;;;;;;4352220;32;20074;-62
2022/02/04 17:11:03;;;;;;;17.00;9.35;;;;;;;;;;4364435;32;20163;-63
2022/02/04 17:13:31;;;;;;;16.65;8.60;;;;;;;;;;4365050;32;20074;-62
2022/02/04 17:15:58;;;;;;;15.65;9.43;;;;;;;;;;4378362;32;20604;-63
2022/02/04 17:18:24;;;;;;;19.02;9.20;;;;;;;;;;4352803;32;20077;-62
2022/02/04 17:20:51;;;;;;;20.05;9.57;;;;;;;;;;4354260;32;20097;-63
2022/02/04 17:23:30;;;;;;;17.87;8.88;;;;;;;;;;4365874;32;20070;-61
2022/02/04 17:25:58;;;;;;;16.73;9.75;;;;;;;;;;4366014;32;20073;-62
2022/02/04 17:28:30;;;;;;;19.30;9.45;;;;;;;;;;4364536;32;20089;-62
2022/02/04 17:30:57;;;;;;;20.15;9.15;;;;;;;;;;4340353;32;20092;-62
2022/02/04 17:33:25;;;;;;;15.15;8.88;;;;;;;;;;4364376;32;20078;-63
2022/02/04 17:35:56;;;;;;;18.42;8.98;;;;;;;;;;4352836;32;20082;-63
2022/02/04 17:38:29;;;;;;;17.65;9.05;;;;;;;;;;4364086;32;20169;-63
2022/02/04 17:40:57;;;;;;;15.77;9.13;;;;;;;;;;4364254;32;20071;-63
2022/02/04 17:43:25;;;;;;;16.23;9.45;;;;;;;;;;4364556;32;20536;-63
2022/02/04 17:45:52;;;;;;;23.62;9.60;;;;;;;;;;4351734;32;20158;-63
2022/02/04 17:48:32;;;;;;;18.35;10.10;;;;;;;;;;4351832;32;20070;-63
2022/02/04 17:51:17;;;;;;;18.55;10.35;;;;;;;;;;4377873;32;20580;-63
2022/02/04 17:53:55;;;;;;;18.77;9.43;;;;;;;;;;4366268;32;20089;-63
2022/02/04 17:56:50;;;;;;;18.35;9.68;;;;;;;;;;4365716;32;20159;-62
2022/02/04 18:07:14;;;;;;;21.42;9.75;;;;;;;;;;4363796;32;20172;-65
2022/02/04 18:09:44;;;;;;;18.75;9.70;;;;;;;;;;4351611;32;20544;-62
2022/02/04 18:12:12;;;;;;;17.10;8.70;;;;;;;;;;4377436;32;20527;-63
2022/02/04 18:14:40;;;;;;;17.60;9.02;;;;;;;;;;4377625;32;20518;-63
2022/02/04 18:17:07;;;;;;;16.45;9.32;;;;;;;;;;4351413;32;20143;-64
2022/02/04 18:19:33;;;;;;;18.65;9.38;;;;;;;;;;4364716;32;20083;-63
2022/02/04 18:22:01;;;;;;;17.15;8.65;;;;;;;;;;4363460;32;20140;-62
2022/02/04 18:24:28;;;;;;;18.73;9.73;;;;;;;;;;4363271;32;20079;-63
2022/02/04 18:26:55;;;;;;;18.60;10.35;;;;;;;;;;4351277;32;20082;-62
2022/02/04 18:29:22;;;;;;;17.33;9.32;;;;;;;;;;4363878;32;20145;-63
2022/02/04 18:31:48;;;;;;;19.98;9.60;;;;;;;;;;4363440;32;20074;-63
2022/02/04 18:34:17;;;;;;;21.50;9.63;;;;;;;;;;4350978;32;20139;-63
2022/02/04 18:36:45;;;;;;;20.15;9.48;;;;;;;;;;4363507;32;20074;-63
2022/02/04 18:44:35;;;;;;;18.08;8.63;;;;;;;;;;4369293;32;20070;-63
2022/02/04 18:47:12;;;;;;;20.33;10.38;;;;;;;;;;4363481;32;20073;-63
2022/02/04 18:49:49;;;;;;;23.33;10.48;;;;;;;;;;4376988;32;20073;-64
2022/02/04 18:54:54;;;;;;;22.20;10.43;;;;;;;;;;4377445;32;20487;-62
2022/02/04 18:57:23;;;;;;;19.45;9.85;;;;;;;;;;4376754;32;20073;-62
2022/02/04 19:00:08;;;;;;;20.98;10.38;;;;;;;;;;4362859;32;20601;-64
2022/02/04 19:02:37;;;;;;;23.75;10.48;;;;;;;;;;4363057;32;20162;-64
2022/02/04 19:05:14;;;;;;;20.65;9.45;;;;;;;;;;4363258;32;20069;-63
2022/02/04 19:07:51;;;;;;;18.62;9.63;;;;;;;;;;4351805;32;20089;-63
2022/02/04 19:10:18;;;;;;;20.62;9.57;;;;;;;;;;4362552;32;20437;-63
2022/02/04 19:15:26;;;;;;;21.23;9.88;;;;;;;;;;4375039;32;20174;-63
2022/02/04 19:23:03;;;;;;;21.95;11.12;;;;;;;;;;4390434;32;20089;-63
2022/02/04 19:25:34;;;;;;;20.67;10.95;;;;;;;;;;4391840;32;20089;-63
2022/02/04 19:28:02;;;;;;;20.10;10.38;;;;;;;;;;4377815;32;20503;-63
2022/02/04 19:30:30;;;;;;;19.90;9.15;;;;;;;;;;4378090;32;20132;-62
2022/02/04 19:32:56;;;;;;;19.80;9.65;;;;;;;;;;4390193;32;20112;-62
2022/02/04 19:35:23;;;;;;;20.90;10.82;;;;;;;;;;4403978;32;20076;-63
2022/02/04 19:37:52;;;;;;;23.02;10.43;;;;;;;;;;4377623;32;20091;-62
2022/02/04 19:40:19;;;;;;;20.88;10.23;;;;;;;;;;4377861;32;20078;-62
2022/02/04 19:42:48;;;;;;;17.83;9.48;;;;;;;;;;4377659;32;20097;-63
2022/02/04 19:45:24;;;;;;;18.42;9.38;;;;;;;;;;4389947;32;20081;-63
2022/02/04 19:48:06;;;;;;;16.35;9.38;;;;;;;;;;4390928;32;20146;-63
2022/02/04 19:50:48;;;;;;;14.85;8.60;;;;;;;;;;4404007;32;20085;-62
2022/02/04 20:07:30;;;;;;;21.17;10.30;;;;;;;;;;4389369;32;20080;-63
2022/02/04 20:25:59;;;;;;;20.70;10.63;;;;;;;;;;4388484;32;20573;-63
2022/02/04 20:28:27;;;;;;;18.92;9.43;;;;;;;;;;4387128;32;20531;-64
2022/02/04 20:30:54;;;;;;;16.87;9.05;;;;;;;;;;4382568;32;20493;-62
2022/02/04 20:33:21;;;;;;;20.12;9.80;;;;;;;;;;4364482;32;20089;-63
2022/02/04 20:35:50;;;;;;;23.08;10.63;;;;;;;;;;4376995;32;20520;-62
2022/02/04 20:38:19;;;;;;;20.45;11.15;;;;;;;;;;4364528;32;20085;-62
2022/02/04 20:40:54;;;;;;;21.00;10.65;;;;;;;;;;4364506;32;20086;-62
2022/02/04 20:43:29;;;;;;;16.80;9.40;;;;;;;;;;4364723;32;20536;-62
2022/02/04 20:45:57;;;;;;;20.75;9.40;;;;;;;;;;4364513;32;20183;-62
2022/02/04 20:48:31;;;;;;;18.77;9.95;;;;;;;;;;4364478;32;20120;-62
2022/02/04 20:50:58;;;;;;;18.17;9.55;;;;;;;;;;4364664;32;20162;-63
2022/02/04 20:53:25;;;;;;;20.45;10.00;;;;;;;;;;4376948;32;20090;-63
2022/02/04 20:55:51;;;;;;;17.42;9.50;;;;;;;;;;4351712;32;20071;-63
2022/02/04 20:58:18;;;;;;;19.08;9.23;;;;;;;;;;4351702;32;20070;-62
2022/02/04 21:00:45;;;;;;;18.80;9.43;;;;;;;;;;4364200;32;20149;-62
2022/02/04 21:03:13;;;;;;;17.98;8.88;;;;;;;;;;4364168;32;20093;-62
2022/02/04 21:05:46;;;;;;;20.02;9.73;;;;;;;;;;4377990;32;20078;-62
2022/02/04 21:16:15;;;;;;;24.25;9.05;;;;;;;;;;4378250;32;20073;-63
2022/02/04 21:18:42;;;;;;;18.90;9.93;;;;;;;;;;4377955;32;20141;-63
2022/02/04 21:21:08;;;;;;;21.42;10.63;;;;;;;;;;4376454;32;20158;-63
2022/02/04 21:23:35;;;;;;;20.95;9.57;;;;;;;;;;4377737;32;20074;-62
2022/02/04 21:26:04;;;;;;;18.50;9.50;;;;;;;;;;4380693;32;20163;-63
2022/02/04 21:28:31;;;;;;;20.52;9.77;;;;;;;;;;4377795;32;20069;-62
2022/02/04 21:30:59;;;;;;;19.75;10.02;;;;;;;;;;4376925;32;20073;-63
2022/02/04 21:38:41;;;;;;;18.42;10.98;;;;;;;;;;4376290;32;20088;-63
2022/02/04 21:41:08;;;;;;;15.75;9.50;;;;;;;;;;4363835;32;20149;-63
2022/02/04 21:43:35;;;;;;;20.08;10.35;;;;;;;;;;4375462;32;20078;-63
2022/02/04 21:46:07;;;;;;;18.35;9.80;;;;;;;;;;4375818;32;20066;-63
2022/02/04 21:48:36;;;;;;;18.90;10.20;;;;;;;;;;4376371;32;20109;-63
2022/02/04 21:51:02;;;;;;;19.65;9.95;;;;;;;;;;4363027;32;20541;-63
2022/02/04 21:53:29;;;;;;;19.83;9.65;;;;;;;;;;4376391;32;20175;-62
2022/02/04 21:55:56;;;;;;;18.87;10.05;;;;;;;;;;4377355;32;20073;-62
2022/02/04 21:58:23;;;;;;;18.58;9.38;;;;;;;;;;4376083;32;20067;-63
2022/02/04 22:00:49;;;;;;;19.80;10.35;;;;;;;;;;4365025;32;20086;-62
2022/02/04 22:03:16;;;;;;;20.92;9.35;;;;;;;;;;4376587;32;20101;-63
2022/02/04 22:05:43;;;;;;;23.90;10.05;;;;;;;;;;4376958;32;20094;-63
2022/02/04 22:08:21;;;;;;;22.98;10.27;;;;;;;;;;4365341;32;20086;-64